Time;durP1;ratioP1;P1;durP2;ratioP2;P2;SDS_P1;SDS_P2;PMS_P1;PMS_P2;Temp;Humidity;BMP_temperature;BMP_pressure;BME280_temperature;BME280_humidity;BME280_pressure;Samples;Min_cycle;Max_cycle;Signal;HPM_P1;HPM_P2
2022/07/12 00:01:38;;;;;;;3.08;2.25;;;;;;;20.29;50.56;99722.06;5092017;28;20200;-62
2022/07/12 00:04:06;;;;;;;2.30;2.20;;;;;;;20.19;50.37;99728.88;5091714;28;20205;-63
2022/07/12 00:06:33;;;;;;;3.05;2.00;;;;;;;20.20;50.88;99731.38;5091532;28;20230;-63
2022/07/12 00:09:00;;;;;;;4.93;2.30;;;;;;;20.14;50.59;99715.97;5091373;28;20223;-63
2022/07/12 00:11:27;;;;;;;3.80;2.15;;;;;;;20.11;50.59;99729.34;5091448;28;20286;-55
2022/07/12 00:13:54;;;;;;;4.38;2.25;;;;;;;20.00;51.08;99728.34;5092079;28;20706;-54
2022/07/12 00:16:21;;;;;;;3.25;2.40;;;;;;;20.02;51.14;99731.72;5078964;28;20586;-54
2022/07/12 00:18:48;;;;;;;2.17;2.08;;;;;;;20.02;51.07;99729.09;5071154;28;20226;-54
2022/07/12 00:21:17;;;;;;;2.42;2.22;;;;;;;20.00;51.32;99725.72;5071142;28;20286;-53
2022/07/12 00:23:44;;;;;;;2.20;2.10;;;;;;;19.95;51.39;99731.28;5070899;28;20287;-54
2022/07/12 00:26:11;;;;;;;2.22;2.13;;;;;;;19.96;51.62;99732.97;5070955;28;20253;-53
2022/07/12 00:28:38;;;;;;;2.20;2.00;;;;;;;19.89;51.61;99732.50;5070995;28;20228;-55
2022/07/12 00:31:05;;;;;;;2.03;1.92;;;;;;;19.82;52.11;99738.28;5071033;28;20682;-55
2022/07/12 00:33:33;;;;;;;2.60;2.10;;;;;;;19.83;52.22;99734.69;5071143;28;20325;-54
2022/07/12 00:36:00;;;;;;;2.40;2.30;;;;;;;19.69;52.54;99737.34;5070818;28;20192;-54
2022/07/12 00:38:28;;;;;;;2.50;2.30;;;;;;;19.61;53.08;99747.53;5070857;28;20208;-53
2022/07/12 00:40:55;;;;;;;3.08;2.30;;;;;;;19.57;53.17;99738.97;5070873;28;20556;-54
2022/07/12 00:43:22;;;;;;;2.13;2.08;;;;;;;19.53;53.27;99743.56;5070904;28;20728;-55
2022/07/12 00:45:49;;;;;;;2.10;2.00;;;;;;;19.54;53.72;99741.78;5070703;28;20253;-54
2022/07/12 00:48:17;;;;;;;2.72;2.40;;;;;;;19.46;53.47;99734.31;5071355;28;20653;-61
2022/07/12 00:50:45;;;;;;;2.10;2.00;;;;;;;19.43;53.75;99742.41;5071670;28;20228;-61
2022/07/12 00:53:14;;;;;;;2.17;2.08;;;;;;;19.37;54.27;99747.22;5072168;28;20623;-60
2022/07/12 00:55:42;;;;;;;2.50;2.40;;;;;;;19.26;54.39;99737.34;5071819;28;20240;-61
2022/07/12 00:58:09;;;;;;;2.42;2.28;;;;;;;19.24;54.65;99739.22;5071440;28;20287;-60
2022/07/12 01:00:36;;;;;;;2.75;2.53;;;;;;;19.22;54.53;99735.81;5071383;28;20680;-60
2022/07/12 01:03:04;;;;;;;2.10;2.00;;;;;;;19.22;54.06;99738.47;5071665;28;21033;-62
2022/07/12 01:05:31;;;;;;;2.28;2.10;;;;;;;19.18;54.42;99734.34;5071312;28;20733;-61
2022/07/12 01:07:59;;;;;;;2.40;2.20;;;;;;;19.20;54.60;99740.34;5071377;28;20266;-60
2022/07/12 01:10:26;;;;;;;2.28;2.17;;;;;;;19.25;53.91;99742.69;5071300;28;20263;-61
2022/07/12 01:12:59;;;;;;;2.40;2.30;;;;;;;19.22;54.20;99738.47;5071169;28;20281;-60
2022/07/12 01:15:28;;;;;;;2.50;2.40;;;;;;;19.20;53.82;99735.91;5071163;28;20286;-61
2022/07/12 01:17:57;;;;;;;2.45;2.35;;;;;;;19.17;54.58;99735.28;5070847;28;20235;-61
2022/07/12 01:20:24;;;;;;;3.03;2.40;;;;;;;19.12;55.02;99721.53;5070997;28;20200;-54
2022/07/12 01:22:54;;;;;;;2.78;2.47;;;;;;;19.11;54.90;99731.22;5070276;28;20196;-54
2022/07/12 01:25:21;;;;;;;2.58;2.22;;;;;;;19.11;54.69;99728.59;5069964;28;20204;-55
2022/07/12 01:27:49;;;;;;;2.60;2.50;;;;;;;19.16;54.56;99723.91;5070053;28;20192;-55
2022/07/12 01:30:16;;;;;;;2.90;2.70;;;;;;;19.08;54.93;99728.75;5069884;28;20327;-57
2022/07/12 01:32:44;;;;;;;2.45;2.33;;;;;;;19.06;54.76;99721.94;5069948;28;20211;-54
2022/07/12 01:35:11;;;;;;;3.35;2.38;;;;;;;19.06;55.28;99727.19;5069847;28;20204;-55
2022/07/12 01:37:41;;;;;;;2.58;2.42;;;;;;;19.05;55.42;99725.50;5069950;28;20241;-54
2022/07/12 01:40:12;;;;;;;2.55;2.45;;;;;;;19.05;55.06;99720.22;5069666;28;20235;-55
2022/07/12 01:42:39;;;;;;;3.03;2.83;;;;;;;19.07;54.70;99721.84;5069817;28;20291;-54
2022/07/12 01:45:08;;;;;;;2.72;2.60;;;;;;;19.03;54.94;99717.69;5069514;28;20200;-55
2022/07/12 01:47:36;;;;;;;2.97;2.50;;;;;;;19.10;54.97;99728.66;5069871;28;20664;-55
2022/07/12 01:50:06;;;;;;;3.28;3.08;;;;;;;19.04;54.63;99719.38;5069935;28;20227;-54
2022/07/12 01:52:33;;;;;;;2.40;2.30;;;;;;;19.10;54.75;99724.25;5070167;28;20664;-56
2022/07/12 01:55:01;;;;;;;2.40;2.20;;;;;;;19.12;54.75;99725.00;5069752;28;20223;-54
2022/07/12 01:57:32;;;;;;;2.40;2.30;;;;;;;19.07;55.09;99728.88;5069610;28;20206;-60
2022/07/12 02:00:00;;;;;;;2.10;2.00;;;;;;;19.00;55.61;99731.00;5070489;28;20211;-60
2022/07/12 02:02:28;;;;;;;2.75;2.55;;;;;;;18.89;56.16;99730.81;5069979;28;20192;-62
2022/07/12 02:04:55;;;;;;;2.17;2.10;;;;;;;18.80;56.62;99731.38;5070280;28;20199;-62
2022/07/12 02:07:24;;;;;;;2.30;2.20;;;;;;;18.86;56.87;99739.72;5069628;28;20295;-62
2022/07/12 02:09:51;;;;;;;2.38;2.28;;;;;;;18.75;57.75;99743.91;5069657;28;20287;-61
2022/07/12 02:12:18;;;;;;;2.40;2.30;;;;;;;18.73;58.07;99746.66;5069962;28;20242;-62
2022/07/12 02:14:46;;;;;;;2.97;2.78;;;;;;;18.66;58.58;99740.06;5069977;28;20257;-61
2022/07/12 02:17:13;;;;;;;2.50;2.40;;;;;;;18.56;59.07;99741.50;5069807;28;20309;-61
2022/07/12 02:19:40;;;;;;;2.63;2.45;;;;;;;18.49;59.38;99742.78;5069860;28;20206;-60
2022/07/12 02:22:07;;;;;;;3.10;2.87;;;;;;;18.44;59.59;99739.56;5069719;28;20220;-60
2022/07/12 02:24:34;;;;;;;2.47;2.37;;;;;;;18.38;59.56;99743.41;5069589;28;20291;-60
2022/07/12 02:27:01;;;;;;;3.07;2.90;;;;;;;18.43;59.45;99753.66;5069533;28;20196;-60
2022/07/12 02:29:28;;;;;;;2.50;2.40;;;;;;;18.38;59.07;99751.28;5070743;28;20759;-60
2022/07/12 02:31:57;;;;;;;2.83;2.73;;;;;;;18.42;59.08;99751.94;5073361;28;20314;-60
2022/07/12 02:34:23;;;;;;;2.33;2.20;;;;;;;18.41;58.61;99752.88;5071913;28;20268;-53
2022/07/12 02:36:50;;;;;;;3.07;2.53;;;;;;;18.37;58.31;99749.59;5069446;28;20675;-52
2022/07/12 02:39:17;;;;;;;2.70;2.50;;;;;;;18.34;58.39;99748.91;5071626;28;20194;-53
2022/07/12 02:41:44;;;;;;;2.80;2.60;;;;;;;18.42;58.22;99741.44;5071994;28;20206;-53
2022/07/12 02:44:11;;;;;;;3.07;2.87;;;;;;;18.48;57.55;99751.63;5069289;28;20692;-53
2022/07/12 02:46:38;;;;;;;2.77;2.57;;;;;;;18.45;56.96;99747.38;5071820;28;20696;-54
2022/07/12 02:49:07;;;;;;;3.00;2.80;;;;;;;18.45;56.92;99757.03;5071664;28;20287;-61
2022/07/12 02:51:33;;;;;;;2.80;2.60;;;;;;;18.41;56.89;99756.34;5071761;28;20684;-54
2022/07/12 02:54:00;;;;;;;3.90;2.80;;;;;;;18.46;57.05;99748.22;5071459;28;20199;-54
2022/07/12 02:56:27;;;;;;;3.13;2.53;;;;;;;18.48;56.39;99751.63;5071631;28;20681;-62
2022/07/12 02:58:54;;;;;;;3.10;2.83;;;;;;;18.53;56.09;99760.06;5071562;28;20197;-62
2022/07/12 03:01:21;;;;;;;2.90;2.70;;;;;;;18.58;55.67;99754.59;5071386;28;20231;-54
2022/07/12 03:03:48;;;;;;;2.60;2.50;;;;;;;18.60;55.25;99763.25;5071269;28;20572;-54
2022/07/12 03:06:17;;;;;;;2.70;2.50;;;;;;;18.66;55.34;99753.19;5071213;28;20542;-53
2022/07/12 03:08:44;;;;;;;2.97;2.67;;;;;;;18.73;54.93;99751.06;5071111;28;20769;-53
2022/07/12 03:11:11;;;;;;;2.45;2.35;;;;;;;18.65;54.67;99764.66;5068510;28;20691;-53
2022/07/12 03:13:38;;;;;;;4.17;2.90;;;;;;;18.64;55.00;99757.69;5070970;28;20257;-55
2022/07/12 03:16:07;;;;;;;3.25;2.80;;;;;;;18.61;54.84;99757.91;5067528;28;20641;-54
2022/07/12 03:18:34;;;;;;;3.10;2.90;;;;;;;18.62;54.88;99770.09;5070880;28;20243;-54
2022/07/12 03:21:01;;;;;;;3.03;2.83;;;;;;;18.74;54.88;99768.53;5071190;28;20220;-56
2022/07/12 03:23:29;;;;;;;3.03;2.70;;;;;;;18.74;54.62;99768.53;5071659;28;20278;-54
2022/07/12 03:25:56;;;;;;;3.17;2.40;;;;;;;18.79;54.68;99777.00;5071012;28;20228;-56
2022/07/12 03:28:25;;;;;;;2.78;2.60;;;;;;;18.72;55.25;99766.00;5071221;28;20678;-55
2022/07/12 03:30:52;;;;;;;2.83;2.50;;;;;;;18.79;54.49;99769.97;5070743;28;20326;-54
2022/07/12 03:33:19;;;;;;;2.72;2.58;;;;;;;18.89;54.11;99766.78;5070464;28;20223;-55
2022/07/12 03:35:46;;;;;;;4.13;2.88;;;;;;;18.94;53.52;99781.38;5070880;28;20228;-54
2022/07/12 03:38:13;;;;;;;2.97;2.63;;;;;;;18.95;53.89;99776.97;5070947;28;20250;-55
2022/07/12 03:40:42;;;;;;;4.72;2.58;;;;;;;19.03;53.53;99779.97;5070087;28;20224;-54
2022/07/12 03:43:09;;;;;;;2.80;2.60;;;;;;;19.16;53.63;99781.78;5070948;28;20705;-55
2022/07/12 03:45:36;;;;;;;2.83;2.60;;;;;;;19.23;52.46;99787.53;5071658;28;20220;-55
2022/07/12 03:48:03;;;;;;;3.70;2.85;;;;;;;19.36;52.15;99780.59;5070927;28;20331;-55
2022/07/12 03:50:30;;;;;;;2.92;2.72;;;;;;;19.44;51.79;99780.97;5071150;28;20231;-55
2022/07/12 03:52:57;;;;;;;2.75;2.55;;;;;;;19.55;51.60;99794.34;5071591;28;20332;-55
2022/07/12 03:55:24;;;;;;;2.72;2.53;;;;;;;19.70;51.40;99791.72;5071522;28;20237;-54
2022/07/12 03:57:52;;;;;;;2.88;2.67;;;;;;;20.61;49.52;99794.66;5071264;28;20226;-55
2022/07/12 04:00:19;;;;;;;2.70;2.28;;;;;;;22.34;45.24;99810.84;5071324;28;20727;-56
2022/07/12 04:02:46;;;;;;;2.72;2.50;;;;;;;24.41;40.41;99810.78;5070534;28;20227;-55
2022/07/12 04:05:13;;;;;;;2.47;2.28;;;;;;;26.32;36.35;99821.94;5071374;28;20219;-55
2022/07/12 04:07:41;;;;;;;3.28;2.97;;;;;;;27.45;34.23;99813.25;5070940;28;20239;-56
2022/07/12 04:10:09;;;;;;;2.53;1.88;;;;;;;28.65;31.60;99816.78;5071225;28;20224;-56
2022/07/12 04:12:36;;;;;;;2.33;2.22;;;;;;;29.85;29.95;99828.59;5071326;28;20220;-55
2022/07/12 04:15:06;;;;;;;2.10;2.00;;;;;;;30.40;28.89;99828.16;5070932;28;20228;-55
2022/07/12 04:17:34;;;;;;;2.40;2.20;;;;;;;31.23;27.88;99831.66;5070612;28;20232;-56
2022/07/12 04:20:01;;;;;;;2.65;2.10;;;;;;;32.09;26.68;99830.94;5071090;28;20325;-63
2022/07/12 04:22:28;;;;;;;2.83;2.13;;;;;;;32.34;26.13;99829.84;5071072;28;20303;-64
2022/07/12 04:24:55;;;;;;;3.75;2.97;;;;;;;32.95;25.18;99836.19;5070841;28;20231;-63
2022/07/12 04:27:22;;;;;;;4.65;4.35;;;;;;;32.90;25.49;99838.56;5070739;28;20314;-63
2022/07/12 04:29:49;;;;;;;2.58;2.38;;;;;;;33.30;25.29;99855.41;5070704;28;20612;-65
2022/07/12 04:32:18;;;;;;;3.03;2.80;;;;;;;34.01;24.28;99852.16;5070434;28;20700;-63
2022/07/12 04:34:45;;;;;;;4.18;3.72;;;;;;;34.68;23.77;99853.81;5070308;28;20226;-64
2022/07/12 04:37:11;;;;;;;5.85;5.35;;;;;;;34.64;23.48;99855.25;5070697;28;20264;-63
2022/07/12 04:39:38;;;;;;;3.75;2.60;;;;;;;34.67;23.69;99854.84;5070789;28;20734;-64
2022/07/12 04:42:06;;;;;;;3.38;2.50;;;;;;;35.09;23.69;99859.47;5070007;28;20249;-64
2022/07/12 04:44:33;;;;;;;3.90;3.65;;;;;;;35.90;22.78;99856.16;5070720;28;21022;-64
2022/07/12 04:47:00;;;;;;;2.60;2.40;;;;;;;36.48;22.00;99862.06;5070048;28;20685;-58
2022/07/12 04:49:28;;;;;;;3.55;3.00;;;;;;;37.29;21.46;99860.16;5069316;28;20311;-59
2022/07/12 04:51:55;;;;;;;6.07;5.65;;;;;;;37.64;20.80;99863.50;5068936;28;20704;-59
2022/07/12 04:54:22;;;;;;;3.90;3.00;;;;;;;37.85;21.07;99859.69;5067924;28;20219;-60
2022/07/12 04:56:49;;;;;;;8.35;5.25;;;;;;;38.15;20.67;99865.47;5068994;28;20675;-60
2022/07/12 04:59:16;;;;;;;5.72;2.22;;;;;;;38.12;20.70;99866.72;5068443;28;20241;-60
2022/07/12 05:01:45;;;;;;;9.20;8.15;;;;;;;38.04;20.10;99864.22;5068465;28;20215;-60
2022/07/12 05:04:12;;;;;;;2.83;1.92;;;;;;;37.92;20.62;99865.09;5067332;28;20226;-60
2022/07/12 05:06:41;;;;;;;2.63;2.42;;;;;;;37.36;21.09;99860.97;5069040;28;20223;-59
2022/07/12 05:09:07;;;;;;;5.30;2.95;;;;;;;37.53;20.33;99864.09;5068437;28;20238;-58
2022/07/12 05:11:34;;;;;;;4.50;2.70;;;;;;;37.21;21.13;99867.66;5068246;28;20227;-59
2022/07/12 05:14:01;;;;;;;3.10;2.10;;;;;;;36.55;21.23;99873.75;5068394;28;20306;-58
2022/07/12 05:16:29;;;;;;;5.65;2.50;;;;;;;36.85;21.18;99873.41;5067889;28;20229;-59
2022/07/12 05:18:56;;;;;;;2.40;2.20;;;;;;;37.15;21.15;99868.44;5067134;28;20307;-59
2022/07/12 05:21:23;;;;;;;1.98;1.88;;;;;;;37.96;20.61;99869.03;5068123;28;20219;-61
2022/07/12 05:23:51;;;;;;;3.90;2.60;;;;;;;38.07;19.87;99871.94;5068670;28;20977;-60
2022/07/12 05:26:18;;;;;;;5.47;2.63;;;;;;;37.99;19.94;99874.88;5065585;28;20251;-60
2022/07/12 05:28:45;;;;;;;3.17;2.88;;;;;;;37.92;20.02;99860.53;5068203;28;20229;-59
2022/07/12 05:31:12;;;;;;;2.90;2.60;;;;;;;37.69;19.98;99862.88;5068042;28;20312;-59
2022/07/12 05:33:39;;;;;;;3.72;2.25;;;;;;;37.31;20.14;99868.06;5068395;28;20221;-64
2022/07/12 05:36:06;;;;;;;3.28;2.33;;;;;;;37.50;20.09;99867.22;5068680;28;20313;-69
2022/07/12 05:38:33;;;;;;;3.33;2.53;;;;;;;37.11;20.57;99865.34;5068517;28;20226;-65
2022/07/12 05:41:01;;;;;;;4.50;2.22;;;;;;;37.01;20.11;99867.63;5068281;28;20234;-62
2022/07/12 05:43:28;;;;;;;3.33;2.40;;;;;;;36.63;21.11;99853.78;5068423;28;20314;-67
2022/07/12 05:45:56;;;;;;;18.15;5.97;;;;;;;35.55;21.62;99854.47;5068893;28;20223;-66
2022/07/12 05:48:23;;;;;;;244.05;61.70;;;;;;;35.74;25.12;99859.19;5067950;28;20777;-65
2022/07/12 05:50:50;;;;;;;6.85;2.80;;;;;;;36.04;21.17;99867.88;5068291;28;20230;-65
2022/07/12 05:53:22;;;;;;;2.65;2.28;;;;;;;34.34;22.36;99865.25;5068533;28;20237;-66
2022/07/12 05:55:50;;;;;;;2.40;2.20;;;;;;;33.85;23.13;99855.91;5069464;28;20728;-64
2022/07/12 05:58:19;;;;;;;2.13;2.03;;;;;;;34.50;22.82;99855.09;5068216;28;20262;-64
2022/07/12 06:00:47;;;;;;;1.90;1.80;;;;;;;34.89;22.05;99856.56;5068046;28;20646;-66
2022/07/12 06:03:14;;;;;;;2.10;2.00;;;;;;;35.19;22.22;99860.81;5068253;28;20224;-64
2022/07/12 06:05:41;;;;;;;2.50;2.30;;;;;;;35.59;21.69;99866.53;5069767;28;20231;-65
2022/07/12 06:08:08;;;;;;;2.72;2.53;;;;;;;35.39;21.88;99865.53;5069440;28;20239;-64
2022/07/12 06:10:35;;;;;;;4.38;2.17;;;;;;;35.18;21.98;99869.91;5069555;28;20302;-64
2022/07/12 06:13:02;;;;;;;2.45;2.25;;;;;;;35.20;22.14;99859.78;5069683;28;20235;-64
2022/07/12 06:15:31;;;;;;;4.88;2.53;;;;;;;35.30;22.36;99857.59;5069138;28;20261;-66
2022/07/12 06:17:58;;;;;;;7.15;2.47;;;;;;;35.28;22.34;99853.41;5068279;28;20255;-65
2022/07/12 06:20:25;;;;;;;25.95;3.58;;;;;;;36.08;21.79;99846.69;5068854;28;20219;-66
2022/07/12 06:22:52;;;;;;;4.78;2.38;;;;;;;36.76;20.95;99847.59;5067528;28;20223;-58
2022/07/12 06:25:20;;;;;;;5.72;2.50;;;;;;;37.03;20.90;99851.97;5068653;28;20653;-59
2022/07/12 06:27:47;;;;;;;4.57;2.58;;;;;;;36.90;21.24;99852.00;5068281;28;20245;-59
2022/07/12 06:30:16;;;;;;;3.72;2.33;;;;;;;36.40;21.73;99851.41;5069161;28;20254;-58
2022/07/12 06:32:46;;;;;;;3.63;1.88;;;;;;;36.03;21.90;99847.28;5069652;28;20691;-58
2022/07/12 06:35:13;;;;;;;6.03;2.50;;;;;;;35.33;22.96;99839.34;5069460;28;20204;-59
2022/07/12 06:37:40;;;;;;;4.78;2.90;;;;;;;34.97;22.86;99842.13;5069660;28;20228;-59
2022/07/12 06:40:09;;;;;;;5.32;2.58;;;;;;;34.90;23.43;99833.94;5069319;28;20666;-59
2022/07/12 06:42:36;;;;;;;3.90;2.58;;;;;;;34.36;23.80;99809.31;5069141;28;20621;-59
2022/07/12 06:45:04;;;;;;;3.70;2.35;;;;;;;34.17;24.28;99826.88;5068960;28;20214;-58
2022/07/12 06:47:31;;;;;;;2.72;2.25;;;;;;;33.75;24.53;99835.66;5069059;28;20282;-59
2022/07/12 06:50:00;;;;;;;5.75;2.22;;;;;;;33.35;25.57;99821.56;5069004;28;20239;-58
2022/07/12 06:52:27;;;;;;;4.78;2.45;;;;;;;33.02;25.46;99822.84;5068825;28;20220;-59
2022/07/12 06:54:54;;;;;;;10.15;2.20;;;;;;;32.72;25.67;99824.59;5069051;28;20204;-59
2022/07/12 06:57:21;;;;;;;2.75;2.22;;;;;;;31.79;26.74;99821.00;5069046;28;20693;-58
2022/07/12 06:59:48;;;;;;;4.93;2.75;;;;;;;31.99;26.56;99811.50;5069450;28;20207;-59
2022/07/12 07:02:15;;;;;;;7.32;2.88;;;;;;;32.20;26.37;99819.84;5068923;28;20291;-58
2022/07/12 07:04:42;;;;;;;4.60;1.90;;;;;;;32.22;26.43;99816.97;5069087;28;20200;-59
2022/07/12 07:07:10;;;;;;;3.35;2.20;;;;;;;32.30;26.31;99824.97;5068590;28;20286;-58
2022/07/12 07:09:37;;;;;;;3.30;2.15;;;;;;;32.69;26.49;99816.84;5068977;28;20210;-59
2022/07/12 07:12:05;;;;;;;2.75;2.33;;;;;;;32.58;25.80;99807.38;5068797;28;20662;-59
2022/07/12 07:14:32;;;;;;;2.30;2.20;;;;;;;32.81;26.49;99808.22;5068205;28;20282;-59
2022/07/12 07:16:59;;;;;;;3.00;2.08;;;;;;;32.96;26.19;99816.31;5071454;28;20634;-58
2022/07/12 07:19:26;;;;;;;4.80;2.47;;;;;;;32.86;26.23;99821.13;5072555;28;20700;-59
2022/07/12 07:21:55;;;;;;;7.50;1.92;;;;;;;32.56;27.44;99821.97;5072474;28;20192;-59
2022/07/12 07:24:23;;;;;;;2.00;1.90;;;;;;;32.27;26.65;99810.06;5072245;28;20204;-59
2022/07/12 07:26:50;;;;;;;2.65;2.05;;;;;;;32.56;25.64;99817.44;5072150;28;20210;-60
2022/07/12 07:32:02;;;;;;;4.38;1.88;;;;;;;32.97;25.65;99814.47;5072098;28;20215;-59
2022/07/12 07:34:29;;;;;;;1.90;1.75;;;;;;;32.88;25.43;99808.34;5072136;28;20218;-60
2022/07/12 07:36:56;;;;;;;2.92;2.13;;;;;;;32.91;25.95;99810.66;5072109;28;20279;-60
2022/07/12 07:39:24;;;;;;;5.07;1.98;;;;;;;31.99;26.72;99790.88;5071957;28;20218;-61
2022/07/12 07:41:51;;;;;;;4.07;2.22;;;;;;;31.99;26.50;99790.03;5072323;28;20196;-60
2022/07/12 07:44:18;;;;;;;3.45;1.77;;;;;;;32.35;26.96;99790.38;5072399;28;20299;-61
2022/07/12 07:46:45;;;;;;;3.63;1.90;;;;;;;33.44;26.63;99792.72;5072139;28;20196;-60
2022/07/12 07:49:12;;;;;;;8.57;2.45;;;;;;;34.13;25.00;99791.41;5071851;28;20231;-61
2022/07/12 07:51:39;;;;;;;5.50;2.45;;;;;;;33.97;25.07;99794.31;5071811;28;20246;-61
2022/07/12 07:54:05;;;;;;;4.28;1.70;;;;;;;34.48;24.05;99808.63;5071679;28;20253;-61
2022/07/12 07:56:34;;;;;;;3.95;1.70;;;;;;;34.85;24.37;99804.88;5071652;28;20198;-60
2022/07/12 07:59:01;;;;;;;3.83;2.05;;;;;;;35.22;22.64;99801.00;5071704;28;20196;-61
2022/07/12 08:04:09;;;;;;;4.15;1.75;;;;;;;34.86;22.14;99800.31;5071404;28;20200;-61
2022/07/12 08:06:36;;;;;;;2.97;1.90;;;;;;;35.14;22.27;99803.03;5071269;28;20216;-60
2022/07/12 08:09:03;;;;;;;5.70;1.67;;;;;;;35.62;22.08;99798.63;5071228;28;20275;-61
2022/07/12 08:11:30;;;;;;;1.85;1.27;;;;;;;35.79;21.32;99791.03;5071506;28;20675;-60
2022/07/12 08:13:59;;;;;;;1.50;1.40;;;;;;;36.31;20.88;99788.59;5071522;28;20651;-60
2022/07/12 08:16:26;;;;;;;4.03;1.85;;;;;;;36.19;21.50;99786.66;5071285;28;20261;-61
2022/07/12 08:18:53;;;;;;;2.13;1.70;;;;;;;36.83;20.90;99788.91;5071282;28;20200;-61
2022/07/12 08:21:20;;;;;;;2.45;1.60;;;;;;;37.29;19.77;99789.75;5071473;28;20655;-60
2022/07/12 08:23:47;;;;;;;2.60;1.70;;;;;;;37.65;19.57;99788.47;5071474;28;20223;-61
2022/07/12 08:26:14;;;;;;;1.60;1.50;;;;;;;37.74;19.01;99779.88;5070202;28;20194;-60
2022/07/12 08:28:41;;;;;;;11.77;1.70;;;;;;;37.26;19.49;99786.63;5068419;28;20537;-60
2022/07/12 08:31:10;;;;;;;3.17;1.30;;;;;;;36.81;20.06;99786.41;5071056;28;20231;-61
2022/07/12 08:33:37;;;;;;;6.95;1.58;;;;;;;36.24;20.30;99776.91;5070659;28;20603;-62
2022/07/12 08:36:05;;;;;;;1.50;1.40;;;;;;;36.68;20.06;99770.97;5070947;28;20202;-62
2022/07/12 08:38:33;;;;;;;4.28;1.60;;;;;;;36.65;20.34;99776.81;5070890;28;20199;-63
2022/07/12 08:41:00;;;;;;;3.70;1.20;;;;;;;36.26;20.29;99776.72;5070919;28;20281;-61
2022/07/12 08:43:27;;;;;;;1.63;1.50;;;;;;;35.88;21.02;99771.78;5070801;28;20664;-62
2022/07/12 08:45:54;;;;;;;2.65;1.42;;;;;;;35.54;21.29;99772.63;5069717;28;20228;-55
2022/07/12 08:48:22;;;;;;;5.10;1.50;;;;;;;35.15;21.28;99761.53;5069094;28;20303;-54
2022/07/12 08:51:02;;;;;;;2.15;1.75;;;;;;;34.50;21.96;99774.22;5070168;28;20192;-55
2022/07/12 08:53:30;;;;;;;3.55;2.17;;;;;;;34.21;22.42;99764.34;5068054;28;20230;-54
2022/07/12 08:55:58;;;;;;;1.75;1.30;;;;;;;33.80;22.33;99760.53;5070693;28;20686;-54
2022/07/12 08:58:25;;;;;;;8.27;1.67;;;;;;;33.59;22.26;99760.44;5070574;28;20648;-55
2022/07/12 09:00:52;;;;;;;2.15;1.85;;;;;;;33.80;22.12;99761.38;5070544;28;20196;-55
2022/07/12 09:03:19;;;;;;;2.95;1.42;;;;;;;33.71;22.20;99753.53;5063854;28;20239;-55
2022/07/12 09:05:53;;;;;;;6.13;1.80;;;;;;;33.64;22.05;99756.13;5050262;28;20564;-56
2022/07/12 09:08:26;;;;;;;3.63;2.20;;;;;;;33.72;22.37;99747.16;5050394;28;20328;-55
2022/07/12 09:10:56;;;;;;;3.20;1.60;;;;;;;33.43;22.17;99739.91;5050128;28;20235;-56
2022/07/12 09:13:48;;;;;;;2.80;1.77;;;;;;;32.85;23.20;99741.47;5049949;28;20701;-55
2022/07/12 09:16:16;;;;;;;2.20;1.52;;;;;;;33.15;22.90;99739.69;5049424;28;20224;-55
2022/07/12 09:18:43;;;;;;;2.65;1.42;;;;;;;33.38;22.58;99742.34;5049981;28;20221;-55
2022/07/12 09:21:22;;;;;;;2.85;1.30;;;;;;;32.88;22.71;99737.59;5064019;28;20220;-55
2022/07/12 09:23:53;;;;;;;2.08;1.75;;;;;;;32.61;23.09;99737.13;5068948;28;20310;-54
2022/07/12 09:26:20;;;;;;;2.28;1.90;;;;;;;32.55;23.04;99737.00;5069603;28;20638;-55
2022/07/12 09:28:51;;;;;;;4.32;1.77;;;;;;;32.72;22.18;99728.66;5069762;28;20216;-55
2022/07/12 09:31:18;;;;;;;3.03;1.92;;;;;;;32.63;22.79;99734.22;5069049;28;20310;-54
2022/07/12 09:36:55;;;;;;;1.30;1.30;;;;;;;33.02;22.31;99737.63;5069580;28;20226;-55
2022/07/12 09:39:23;;;;;;;3.83;1.45;;;;;;;33.01;22.20;99738.63;5068992;28;20222;-54
2022/07/12 09:41:50;;;;;;;3.00;1.50;;;;;;;33.23;21.84;99731.56;5066404;28;20226;-54
2022/07/12 09:44:19;;;;;;;2.97;1.45;;;;;;;33.43;21.80;99732.66;5068536;28;20216;-56
2022/07/12 09:46:47;;;;;;;6.78;2.83;;;;;;;32.86;22.35;99729.69;5065443;28;20224;-55
2022/07/12 09:49:15;;;;;;;7.18;2.13;;;;;;;32.71;22.46;99734.22;5068761;28;20259;-55
2022/07/12 09:51:45;;;;;;;4.78;1.70;;;;;;;32.89;22.20;99718.59;5068814;28;20706;-54
2022/07/12 09:54:22;;;;;;;1.98;1.13;;;;;;;33.12;21.91;99735.50;5068641;28;20228;-60
2022/07/12 09:56:54;;;;;;;3.15;1.77;;;;;;;33.12;22.25;99724.75;5066505;28;20298;-60
2022/07/12 09:59:24;;;;;;;2.00;1.77;;;;;;;33.10;21.53;99720.56;5068684;28;20231;-60
2022/07/12 10:01:52;;;;;;;3.25;1.95;;;;;;;32.97;21.37;99717.66;5067959;28;20219;-60
2022/07/12 10:04:22;;;;;;;3.92;1.80;;;;;;;32.53;22.25;99720.22;5068423;28;20227;-54
2022/07/12 10:06:49;;;;;;;1.80;1.50;;;;;;;32.58;22.59;99712.44;5068609;28;20235;-54
2022/07/12 10:09:18;;;;;;;2.75;1.40;;;;;;;32.76;22.10;99703.06;5068221;28;20767;-55
2022/07/12 10:11:45;;;;;;;1.90;1.70;;;;;;;32.73;22.63;99705.31;5066160;28;20336;-55
2022/07/12 10:14:13;;;;;;;3.60;1.67;;;;;;;32.09;22.70;99705.53;5068736;28;20231;-54
2022/07/12 10:16:43;;;;;;;1.75;1.60;;;;;;;32.09;22.97;99702.03;5068545;28;20710;-54
2022/07/12 10:19:26;;;;;;;6.40;2.03;;;;;;;31.97;23.47;99703.44;5068998;28;20229;-54
2022/07/12 10:21:54;;;;;;;1.88;1.55;;;;;;;31.75;23.20;99680.91;5068983;28;20229;-55
2022/07/12 10:24:54;;;;;;;3.42;1.77;;;;;;;31.41;23.36;99683.88;5069146;28;20303;-55
2022/07/12 10:27:34;;;;;;;3.33;1.45;;;;;;;31.11;24.06;99687.34;5068785;28;20267;-60
2022/07/12 10:30:20;;;;;;;5.38;1.52;;;;;;;31.11;24.52;99688.19;5068351;28;20227;-59
2022/07/12 10:32:48;;;;;;;2.35;1.40;;;;;;;31.04;24.11;99688.00;5069095;28;20314;-60
2022/07/12 10:35:18;;;;;;;3.40;1.92;;;;;;;30.85;24.48;99680.31;5068892;28;20232;-60
2022/07/12 10:38:20;;;;;;;4.43;2.10;;;;;;;30.92;24.36;99686.69;5068916;28;20232;-60
2022/07/12 10:40:50;;;;;;;2.22;1.80;;;;;;;30.67;24.86;99671.66;5068813;28;20601;-60
2022/07/12 10:44:04;;;;;;;6.55;2.03;;;;;;;30.47;24.48;99681.84;5068743;28;20370;-60
2022/07/12 10:46:18;;;;;;;2.25;2.05;;;;;;;30.42;25.25;99667.28;5068169;28;20231;-54
2022/07/12 10:48:45;;;;;;;2.17;1.98;;;;;;;30.50;25.26;99665.41;5068866;28;20277;-55
2022/07/12 10:51:16;;;;;;;2.17;1.60;;;;;;;30.36;25.21;99665.28;5070389;28;20223;-54
2022/07/12 10:53:45;;;;;;;1.88;1.70;;;;;;;30.08;25.19;99656.72;5072537;28;20697;-60
2022/07/12 10:56:17;;;;;;;1.80;1.70;;;;;;;29.94;26.06;99655.47;5072763;28;20216;-55
2022/07/12 10:58:46;;;;;;;3.03;2.17;;;;;;;30.00;26.50;99657.53;5072910;28;20226;-55
2022/07/12 11:01:15;;;;;;;3.33;1.90;;;;;;;30.02;26.68;99663.56;5071898;28;20229;-55
2022/07/12 11:03:44;;;;;;;1.92;1.75;;;;;;;29.99;26.29;99669.25;5072279;28;20310;-54
2022/07/12 11:06:13;;;;;;;2.25;1.80;;;;;;;29.95;26.44;99654.47;5072283;28;20228;-54
2022/07/12 11:08:55;;;;;;;4.05;2.08;;;;;;;30.02;26.27;99658.22;5072201;28;20687;-55
2022/07/12 11:11:25;;;;;;;5.07;2.42;;;;;;;29.95;26.70;99657.16;5065637;28;20255;-56
2022/07/12 11:13:53;;;;;;;5.05;3.65;;;;;;;29.99;26.73;99661.22;5052254;28;20246;-60
2022/07/12 11:16:20;;;;;;;2.83;2.47;;;;;;;30.00;26.08;99660.22;5051522;28;20230;-55
2022/07/12 11:18:47;;;;;;;3.35;2.22;;;;;;;29.88;26.32;99650.78;5052249;28;20683;-55
2022/07/12 11:21:14;;;;;;;4.40;2.33;;;;;;;29.87;26.58;99654.47;5052120;28;20617;-55
2022/07/12 11:23:44;;;;;;;3.60;1.60;;;;;;;29.88;26.55;99651.63;5058450;28;20740;-55
2022/07/12 11:26:13;;;;;;;2.58;1.95;;;;;;;29.85;27.08;99651.94;5072070;28;20627;-54
2022/07/12 11:28:43;;;;;;;4.32;1.83;;;;;;;29.90;26.83;99640.75;5071651;28;20237;-53
2022/07/12 11:31:12;;;;;;;4.00;2.00;;;;;;;29.91;26.52;99637.09;5071104;28;20226;-54
2022/07/12 11:33:41;;;;;;;4.95;1.83;;;;;;;29.88;26.88;99645.44;5071520;28;20243;-55
2022/07/12 11:36:09;;;;;;;2.70;1.70;;;;;;;29.69;26.92;99643.03;5071763;28;20695;-59
2022/07/12 11:38:37;;;;;;;1.88;1.50;;;;;;;29.67;27.31;99640.53;5071576;28;20243;-54
2022/07/12 11:41:06;;;;;;;3.38;1.75;;;;;;;29.47;27.49;99623.06;5071661;28;20235;-54
2022/07/12 11:43:35;;;;;;;3.58;1.60;;;;;;;29.69;26.86;99632.34;5071817;28;20240;-55
2022/07/12 11:46:05;;;;;;;3.92;2.13;;;;;;;29.75;26.82;99634.38;5071475;28;20315;-55
2022/07/12 11:48:33;;;;;;;3.17;1.85;;;;;;;29.79;26.89;99635.72;5071607;28;20259;-55